Time;durP1;ratioP1;P1;durP2;ratioP2;P2;SDS_P1;SDS_P2;PMS_P1;PMS_P2;Temp;Humidity;BMP_temperature;BMP_pressure;BME280_temperature;BME280_humidity;BME280_pressure;Samples;Min_cycle;Max_cycle;Signal;HPM_P1;HPM_P2
2021/03/30 00:01:44;;;;;;;1999.90;999.90;;;18.40;78.90;;;;;;5053881;28;20560;-55
2021/03/30 00:04:11;;;;;;;1999.90;999.90;;;18.30;79.30;;;;;;5053822;28;20177;-45
2021/03/30 00:06:38;;;;;;;1999.90;999.90;;;18.30;79.50;;;;;;5053335;28;20193;-58
2021/03/30 00:09:06;;;;;;;1999.90;999.90;;;18.20;79.30;;;;;;5053641;28;20196;-48
2021/03/30 00:11:32;;;;;;;1999.90;999.90;;;18.20;80.60;;;;;;5053682;28;20248;-58
2021/03/30 00:13:59;;;;;;;1999.90;999.90;;;18.30;81.20;;;;;;5053584;28;20511;-58
2021/03/30 00:16:26;;;;;;;1999.90;999.90;;;18.30;81.30;;;;;;5053700;28;20251;-57
2021/03/30 00:18:53;;;;;;;1999.90;999.90;;;18.20;82.10;;;;;;5053543;28;20165;-56
2021/03/30 00:21:20;;;;;;;1999.90;999.90;;;18.10;82.00;;;;;;5053622;28;20635;-57
2021/03/30 00:23:46;;;;;;;1999.90;999.90;;;18.10;82.10;;;;;;5053767;28;20170;-53
2021/03/30 00:26:13;;;;;;;1999.90;999.90;;;18.00;82.40;;;;;;5053365;28;20169;-52
2021/03/30 00:28:40;;;;;;;1999.90;999.90;;;17.90;82.20;;;;;;5053293;28;20203;-37
2021/03/30 00:31:07;;;;;;;1999.90;999.90;;;17.90;83.50;;;;;;5053350;28;20193;-59
2021/03/30 00:33:34;;;;;;;1999.90;999.90;;;17.90;83.90;;;;;;5053355;28;20169;-56
2021/03/30 00:36:00;;;;;;;1999.90;999.90;;;17.90;84.30;;;;;;5053100;28;20209;-57
2021/03/30 00:38:27;;;;;;;1999.90;999.90;;;17.90;84.30;;;;;;5053179;28;20183;-57
2021/03/30 00:40:54;;;;;;;1999.90;999.90;;;17.80;84.80;;;;;;5053150;28;20200;-54
2021/03/30 00:43:21;;;;;;;1999.90;999.90;;;17.70;85.40;;;;;;5053262;28;20184;-49
2021/03/30 00:45:48;;;;;;;1999.90;999.90;;;17.70;86.00;;;;;;5053140;28;20582;-57
2021/03/30 00:48:23;;;;;;;1999.90;999.90;;;17.60;86.60;;;;;;5052981;28;20215;-57
2021/03/30 00:50:50;;;;;;;1999.90;999.90;;;17.50;87.20;;;;;;5053118;28;20550;-57
2021/03/30 00:53:17;;;;;;;1999.90;999.90;;;17.50;86.90;;;;;;5052990;28;20537;-48
2021/03/30 00:55:45;;;;;;;1999.90;999.90;;;17.50;86.50;;;;;;5052946;28;20166;-57
2021/03/30 00:58:12;;;;;;;1999.90;999.90;;;17.40;86.80;;;;;;5052956;28;20255;-56
2021/03/30 01:00:39;;;;;;;1999.90;999.90;;;17.40;86.50;;;;;;5053260;28;20522;-59
2021/03/30 01:03:06;;;;;;;1999.90;999.90;;;17.40;86.00;;;;;;5052903;28;20177;-59
2021/03/30 01:05:33;;;;;;;1999.90;999.90;;;17.30;86.60;;;;;;5052859;28;20173;-59
2021/03/30 01:08:21;;;;;;;1999.90;999.90;;;17.40;86.20;;;;;;5052779;28;20663;-59
2021/03/30 01:10:59;;;;;;;1999.90;999.90;;;17.30;86.60;;;;;;5052874;28;20165;-59
2021/03/30 01:13:32;;;;;;;1999.90;999.90;;;17.30;87.30;;;;;;5052787;28;20153;-47
2021/03/30 01:16:16;;;;;;;1999.90;999.90;;;17.30;87.30;;;;;;5052828;28;20181;-57
2021/03/30 01:18:55;;;;;;;1999.90;999.90;;;17.20;87.80;;;;;;5052887;28;20176;-57
2021/03/30 01:22:25;;;;;;;1999.90;999.90;;;17.20;88.30;;;;;;5057142;28;20195;-52
2021/03/30 01:25:00;;;;;;;1999.90;999.90;;;17.10;88.60;;;;;;5015039;28;20266;-52
2021/03/30 01:27:55;;;;;;;1999.90;999.90;;;17.00;88.70;;;;;;5014921;28;20185;-38
2021/03/30 01:30:23;;;;;;;1999.90;999.90;;;17.00;89.20;;;;;;5053177;28;20216;-57
2021/03/30 01:32:58;;;;;;;1999.90;999.90;;;17.00;89.60;;;;;;5056656;28;20165;-57
2021/03/30 01:35:26;;;;;;;1999.90;999.90;;;17.00;89.50;;;;;;5056589;28;20220;-57
2021/03/30 01:37:55;;;;;;;1999.90;999.90;;;16.90;89.90;;;;;;5056702;28;20632;-57
2021/03/30 01:40:29;;;;;;;1999.90;999.90;;;16.80;90.00;;;;;;5056572;28;20200;-50
2021/03/30 01:42:56;;;;;;;1999.90;999.90;;;16.80;90.40;;;;;;5056603;28;20164;-56
2021/03/30 01:45:25;;;;;;;1999.90;999.90;;;16.80;90.70;;;;;;5056766;28;20695;-57
2021/03/30 01:47:53;;;;;;;1999.90;999.90;;;16.80;90.80;;;;;;5056330;28;20342;-53
2021/03/30 01:50:21;;;;;;;1999.90;999.90;;;16.70;91.20;;;;;;5056408;28;20169;-59
2021/03/30 01:52:50;;;;;;;1999.90;999.90;;;16.70;91.20;;;;;;5056376;28;20532;-49
2021/03/30 01:55:18;;;;;;;1999.90;999.90;;;16.70;91.30;;;;;;5056335;28;20244;-57
2021/03/30 01:57:48;;;;;;;1999.90;999.90;;;16.70;91.20;;;;;;5056181;28;20248;-57
2021/03/30 02:00:16;;;;;;;1999.90;999.90;;;16.80;91.00;;;;;;5056291;28;20315;-57
2021/03/30 02:02:44;;;;;;;1999.90;999.90;;;16.80;91.00;;;;;;5056151;28;20165;-57
2021/03/30 02:05:15;;;;;;;1999.90;999.90;;;16.80;90.90;;;;;;5056164;28;20169;-56
2021/03/30 02:07:43;;;;;;;1999.90;999.90;;;16.80;90.90;;;;;;5056055;28;20232;-56
2021/03/30 02:10:21;;;;;;;1999.90;999.90;;;16.70;91.00;;;;;;5056019;28;20206;-56
2021/03/30 02:12:48;;;;;;;1999.90;999.90;;;16.70;91.50;;;;;;5055978;28;20173;-56
2021/03/30 02:15:16;;;;;;;1999.90;999.90;;;16.60;91.20;;;;;;5055879;28;20174;-56
2021/03/30 02:18:01;;;;;;;1999.90;999.90;;;16.60;91.40;;;;;;5055794;28;20169;-56
2021/03/30 02:20:41;;;;;;;1999.90;999.90;;;16.50;91.30;;;;;;5056062;28;20199;-57
2021/03/30 02:23:19;;;;;;;1999.90;999.90;;;16.50;92.10;;;;;;5055840;28;20189;-57
2021/03/30 02:25:48;;;;;;;1999.90;999.90;;;16.50;92.30;;;;;;5055746;28;20501;-57
2021/03/30 02:28:21;;;;;;;1999.90;999.90;;;16.40;92.70;;;;;;5055590;28;20201;-58
2021/03/30 02:30:50;;;;;;;1999.90;999.90;;;16.30;91.80;;;;;;5055197;28;20199;-52
2021/03/30 02:33:22;;;;;;;1999.90;999.90;;;16.40;91.30;;;;;;5055529;28;20165;-57
2021/03/30 02:35:53;;;;;;;1999.90;999.90;;;16.40;90.90;;;;;;5055304;28;20225;-57
2021/03/30 02:38:21;;;;;;;1999.90;999.90;;;16.40;90.90;;;;;;5055545;28;20176;-57
2021/03/30 02:40:52;;;;;;;1999.90;999.90;;;16.40;90.50;;;;;;5055496;28;20659;-56
2021/03/30 02:43:20;;;;;;;1999.90;999.90;;;16.40;90.60;;;;;;5055452;28;20157;-57
2021/03/30 02:45:51;;;;;;;1999.90;999.90;;;16.40;90.80;;;;;;5055366;28;20244;-57
2021/03/30 02:48:19;;;;;;;1999.90;999.90;;;16.40;91.00;;;;;;5055303;28;20193;-57
2021/03/30 02:50:47;;;;;;;1999.90;999.90;;;16.40;92.20;;;;;;5055239;28;20172;-59
2021/03/30 02:53:15;;;;;;;1999.90;999.90;;;16.40;92.10;;;;;;5055158;28;20189;-58
2021/03/30 02:55:44;;;;;;;1999.90;999.90;;;16.40;92.30;;;;;;5055145;28;20169;-56
2021/03/30 02:58:11;;;;;;;1999.90;999.90;;;16.40;92.60;;;;;;5055014;28;20580;-58
2021/03/30 03:00:40;;;;;;;1999.90;999.90;;;16.40;92.90;;;;;;5053814;28;20260;-58
2021/03/30 03:03:12;;;;;;;1999.90;999.90;;;16.40;93.50;;;;;;5054964;28;20329;-57
2021/03/30 03:05:39;;;;;;;1999.90;999.90;;;16.40;94.20;;;;;;5055020;28;20189;-58
2021/03/30 03:08:07;;;;;;;1999.90;999.90;;;16.30;94.60;;;;;;5054780;28;20239;-56
2021/03/30 03:10:36;;;;;;;1999.90;999.90;;;16.10;92.60;;;;;;5055092;28;20157;-56
2021/03/30 03:13:05;;;;;;;1999.90;999.90;;;15.80;93.60;;;;;;5054860;28;20169;-56
2021/03/30 03:15:33;;;;;;;1999.90;999.90;;;15.80;94.80;;;;;;5054865;28;20176;-56
2021/03/30 03:18:01;;;;;;;1999.90;999.90;;;15.60;95.20;;;;;;5054676;28;20191;-56
2021/03/30 03:20:28;;;;;;;1999.90;999.90;;;15.50;95.20;;;;;;5054682;28;20168;-58
2021/03/30 03:22:55;;;;;;;1999.90;999.90;;;15.50;95.70;;;;;;5054559;28;20161;-56
2021/03/30 03:25:22;;;;;;;1999.90;999.90;;;15.40;96.10;;;;;;5054487;28;20196;-57
2021/03/30 03:27:49;;;;;;;1999.90;999.90;;;15.30;96.70;;;;;;5054217;28;20278;-56
2021/03/30 03:30:17;;;;;;;1999.90;999.90;;;15.40;97.30;;;;;;5054238;28;20257;-56
2021/03/30 03:32:44;;;;;;;1999.90;999.90;;;15.30;97.90;;;;;;5054157;28;20169;-56
2021/03/30 03:35:12;;;;;;;1999.90;999.90;;;15.20;98.40;;;;;;5053820;28;20216;-55
2021/03/30 03:37:47;;;;;;;1999.90;999.90;;;15.20;98.70;;;;;;5054147;28;20519;-57
2021/03/30 03:40:17;;;;;;;1999.90;999.90;;;15.10;99.20;;;;;;5054144;28;20165;-55
2021/03/30 03:42:43;;;;;;;1999.90;999.90;;;14.90;99.90;;;;;;5053280;28;20164;-49
2021/03/30 03:45:11;;;;;;;1999.90;999.90;;;14.80;99.90;;;;;;5053987;28;20663;-57
2021/03/30 03:47:38;;;;;;;1999.90;999.90;;;14.60;99.90;;;;;;5054079;28;20631;-57
2021/03/30 03:50:06;;;;;;;1999.90;999.90;;;14.70;99.90;;;;;;5054214;28;20173;-56
2021/03/30 03:52:42;;;;;;;1999.90;999.90;;;14.70;99.90;;;;;;5054311;28;20521;-57
2021/03/30 03:55:12;;;;;;;1999.90;999.90;;;14.70;99.90;;;;;;5054031;28;20192;-57
2021/03/30 03:58:06;;;;;;;1999.90;999.90;;;14.70;99.90;;;;;;5053988;28;20173;-57
2021/03/30 04:00:34;;;;;;;1999.90;999.90;;;14.60;99.90;;;;;;5053859;28;20165;-57
2021/03/30 04:03:21;;;;;;;1999.90;999.90;;;14.60;99.90;;;;;;5053759;28;20169;-58
2021/03/30 04:06:08;;;;;;;1999.90;999.90;;;14.80;99.90;;;;;;5053718;28;20219;-56
2021/03/30 04:08:41;;;;;;;1999.90;999.90;;;15.00;99.90;;;;;;5053716;28;20204;-59
2021/03/30 04:11:09;;;;;;;1999.90;999.90;;;15.00;99.90;;;;;;5053654;28;20196;-56
2021/03/30 04:13:38;;;;;;;1999.90;999.90;;;15.20;99.90;;;;;;5053656;28;20579;-57
2021/03/30 04:16:06;;;;;;;1999.90;999.90;;;15.20;99.90;;;;;;5053475;28;20204;-56
2021/03/30 04:18:35;;;;;;;1999.90;999.90;;;15.20;99.90;;;;;;5052144;28;20169;-57
2021/03/30 04:21:06;;;;;;;1999.90;999.90;;;15.30;99.90;;;;;;5053424;28;20640;-53
2021/03/30 04:23:41;;;;;;;1999.90;999.90;;;15.30;99.90;;;;;;5053491;28;20161;-57
2021/03/30 04:26:08;;;;;;;1999.90;999.90;;;15.40;99.90;;;;;;5053502;28;20168;-55
2021/03/30 04:28:35;;;;;;;1999.90;999.90;;;15.30;99.90;;;;;;5053109;28;20239;-57
2021/03/30 04:31:02;;;;;;;1999.90;999.90;;;15.30;99.90;;;;;;5053274;28;20192;-57
2021/03/30 04:33:29;;;;;;;1999.90;999.90;;;15.30;99.90;;;;;;5053370;28;20307;-53
2021/03/30 04:35:56;;;;;;;1999.90;999.90;;;15.40;99.90;;;;;;5052943;28;20216;-57
2021/03/30 04:38:23;;;;;;;1999.90;999.90;;;15.40;99.90;;;;;;5052942;28;20173;-56
2021/03/30 04:40:54;;;;;;;1999.90;999.90;;;15.30;99.90;;;;;;5052718;28;20200;-57
2021/03/30 04:43:24;;;;;;;1999.90;999.90;;;15.30;99.90;;;;;;5052911;28;20583;-56
2021/03/30 04:45:52;;;;;;;1999.90;999.90;;;15.20;99.90;;;;;;5053155;28;20165;-56
2021/03/30 04:48:19;;;;;;;1999.90;999.90;;;15.20;99.90;;;;;;5052875;28;20288;-57
2021/03/30 04:50:46;;;;;;;1999.90;999.90;;;15.10;99.90;;;;;;5052755;28;20162;-50
2021/03/30 04:53:13;;;;;;;1999.90;999.90;;;15.10;99.90;;;;;;5052731;28;20177;-53
2021/03/30 04:55:40;;;;;;;1999.90;999.90;;;15.10;99.90;;;;;;5052900;28;20684;-54
2021/03/30 04:58:07;;;;;;;1999.90;999.90;;;15.10;99.90;;;;;;5052842;28;20230;-56
2021/03/30 05:00:34;;;;;;;1999.90;999.90;;;15.10;99.90;;;;;;5052841;28;20180;-53
2021/03/30 05:03:00;;;;;;;1999.90;999.90;;;15.10;99.90;;;;;;5052662;28;20536;-54
2021/03/30 05:05:27;;;;;;;1999.90;999.90;;;15.00;99.90;;;;;;5052681;28;20173;-47
2021/03/30 05:07:54;;;;;;;1999.90;999.90;;;15.00;99.90;;;;;;5052458;28;20201;-53
2021/03/30 05:10:21;;;;;;;1999.90;999.90;;;15.00;99.90;;;;;;5052559;28;20176;-50
2021/03/30 05:12:48;;;;;;;1999.90;999.90;;;15.00;99.90;;;;;;5052595;28;20173;-57
2021/03/30 05:15:15;;;;;;;1999.90;999.90;;;15.00;99.90;;;;;;5052652;28;20173;-37
2021/03/30 05:17:42;;;;;;;1999.90;999.90;;;14.70;99.90;;;;;;5052569;28;20645;-46
2021/03/30 05:20:09;;;;;;;1999.90;999.90;;;14.50;99.90;;;;;;5052305;28;20207;-54
2021/03/30 05:22:38;;;;;;;1999.90;999.90;;;14.40;99.90;;;;;;5052499;28;20921;-55
2021/03/30 05:25:08;;;;;;;1999.90;999.90;;;14.30;99.90;;;;;;5052312;28;20259;-57
2021/03/30 05:27:36;;;;;;;1999.90;999.90;;;14.30;99.90;;;;;;5050753;28;20201;-55
2021/03/30 05:30:04;;;;;;;1999.90;999.90;;;14.20;99.90;;;;;;5052029;28;20255;-53
2021/03/30 05:32:31;;;;;;;1999.90;999.90;;;14.10;99.90;;;;;;5052367;28;20195;-53
2021/03/30 05:34:58;;;;;;;1999.90;999.90;;;14.10;99.90;;;;;;5051922;28;20248;-57
2021/03/30 05:37:25;;;;;;;1999.90;999.90;;;14.20;99.90;;;;;;5052222;28;20514;-51
2021/03/30 05:39:52;;;;;;;1999.90;999.90;;;14.20;99.90;;;;;;5052260;28;20543;-50
2021/03/30 05:42:22;;;;;;;1999.90;999.90;;;14.30;99.90;;;;;;5052273;28;20177;-47
2021/03/30 05:44:53;;;;;;;1999.90;999.90;;;14.30;99.90;;;;;;5052288;28;20280;-53
2021/03/30 05:47:23;;;;;;;1999.90;999.90;;;14.30;99.90;;;;;;5052224;28;20600;-46
2021/03/30 05:49:51;;;;;;;1999.90;999.90;;;14.50;99.90;;;;;;5052029;28;20204;-37
2021/03/30 05:53:05;;;;;;;1999.90;999.90;;;14.50;99.90;;;;;;5052221;28;20177;-53
2021/03/30 05:55:30;;;;;;;1999.90;999.90;;;14.60;99.90;;;;;;5049937;28;20192;-59
2021/03/30 05:58:03;;;;;;;1999.90;999.90;;;14.70;99.90;;;;;;5052281;28;20210;-36
2021/03/30 06:00:51;;;;;;;1999.90;999.90;;;14.80;99.90;;;;;;5052190;28;20582;-49
2021/03/30 06:03:29;;;;;;;1999.90;999.90;;;14.90;99.90;;;;;;5051245;28;20173;-51
2021/03/30 06:05:58;;;;;;;1999.90;999.90;;;15.00;99.90;;;;;;5034113;28;20632;-47
2021/03/30 06:08:27;;;;;;;1999.90;999.90;;;15.40;99.90;;;;;;5048925;28;20232;-41
2021/03/30 06:10:59;;;;;;;1999.90;999.90;;;15.70;99.40;;;;;;5054166;28;20223;-37
2021/03/30 06:13:48;;;;;;;1999.90;999.90;;;16.00;98.50;;;;;;5053783;28;20282;-48
2021/03/30 06:16:40;;;;;;;1999.90;999.90;;;16.10;99.00;;;;;;5034736;28;20308;-45
2021/03/30 06:19:18;;;;;;;1999.90;999.90;;;16.00;99.30;;;;;;5050323;28;20192;-36
2021/03/30 06:21:48;;;;;;;1999.90;999.90;;;16.00;99.20;;;;;;5047308;28;20189;-43
2021/03/30 06:24:24;;;;;;;1999.90;999.90;;;16.20;98.90;;;;;;5055030;28;20270;-39
2021/03/30 06:26:57;;;;;;;1999.90;999.90;;;16.20;99.10;;;;;;5054056;28;20252;-39
2021/03/30 06:29:27;;;;;;;1999.90;999.90;;;16.20;99.30;;;;;;5049371;28;20285;-42
2021/03/30 06:31:55;;;;;;;1999.90;999.90;;;16.20;99.40;;;;;;5054398;28;20173;-38
2021/03/30 06:34:29;;;;;;;1999.90;999.90;;;16.20;99.20;;;;;;5054035;28;20245;-41
2021/03/30 06:36:56;;;;;;;1999.90;999.90;;;16.30;99.30;;;;;;5052758;28;20226;-39
2021/03/30 06:39:38;;;;;;;1999.90;999.90;;;16.30;99.20;;;;;;5053741;28;20616;-39
2021/03/30 06:42:17;;;;;;;1999.90;999.90;;;16.30;99.30;;;;;;5050509;28;20173;-39
2021/03/30 06:44:44;;;;;;;1999.90;999.90;;;16.30;99.40;;;;;;5053770;28;20165;-42
2021/03/30 06:47:17;;;;;;;1999.90;999.90;;;16.40;99.30;;;;;;5054646;28;20515;-41
2021/03/30 06:50:01;;;;;;;1999.90;999.90;;;16.50;98.90;;;;;;5053574;28;20197;-40
2021/03/30 06:52:34;;;;;;;1999.90;999.90;;;16.60;98.80;;;;;;5054074;28;20244;-39
2021/03/30 06:55:02;;;;;;;1999.90;999.90;;;16.80;98.60;;;;;;5053640;28;20184;-39
2021/03/30 06:57:46;;;;;;;1999.90;999.90;;;17.00;98.20;;;;;;5052805;28;20205;-44
2021/03/30 07:00:35;;;;;;;1999.90;999.90;;;17.10;97.40;;;;;;5053607;28;20270;-47
2021/03/30 07:03:11;;;;;;;1999.90;999.90;;;17.20;97.40;;;;;;5053009;28;20188;-46
2021/03/30 07:05:45;;;;;;;1999.90;999.90;;;17.30;97.30;;;;;;5053082;28;20585;-41
2021/03/30 07:08:22;;;;;;;1999.90;999.90;;;17.40;97.20;;;;;;5053042;28;20625;-41
2021/03/30 07:10:54;;;;;;;1999.90;999.90;;;17.60;96.40;;;;;;5052051;28;20225;-42
2021/03/30 07:13:23;;;;;;;1999.90;999.90;;;17.70;96.80;;;;;;5053679;28;20154;-50
2021/03/30 07:16:00;;;;;;;1999.90;999.90;;;17.80;95.80;;;;;;5052634;28;20247;-45
2021/03/30 07:18:36;;;;;;;1999.90;999.90;;;18.10;95.40;;;;;;5051939;28;20165;-43
2021/03/30 07:21:10;;;;;;;1999.90;999.90;;;18.40;94.50;;;;;;5051696;28;20177;-55
2021/03/30 07:23:41;;;;;;;1999.90;999.90;;;18.70;94.70;;;;;;5052314;28;20302;-49
2021/03/30 07:26:11;;;;;;;1999.90;999.90;;;18.90;94.10;;;;;;5052662;28;20157;-43
2021/03/30 07:28:49;;;;;;;1999.90;999.90;;;19.10;93.30;;;;;;5053358;28;20208;-49
2021/03/30 07:31:31;;;;;;;1999.90;999.90;;;19.20;92.80;;;;;;5050216;28;20164;-51
2021/03/30 07:34:12;;;;;;;1999.90;999.90;;;19.10;92.50;;;;;;5027689;28;20182;-41
2021/03/30 07:37:09;;;;;;;1999.90;999.90;;;19.30;92.40;;;;;;5014966;28;20728;-39
2021/03/30 07:39:48;;;;;;;1999.90;999.90;;;19.60;91.50;;;;;;5024129;28;20561;-42
2021/03/30 07:42:15;;;;;;;1999.90;999.90;;;19.80;91.20;;;;;;5033468;28;20161;-56
2021/03/30 07:44:46;;;;;;;1999.90;999.90;;;20.40;89.80;;;;;;5032931;28;20185;-43
2021/03/30 07:47:14;;;;;;;1999.90;999.90;;;20.70;87.50;;;;;;5049432;28;20176;-52
2021/03/30 07:49:48;;;;;;;1999.90;999.90;;;21.00;86.50;;;;;;5052852;28;20208;-56
2021/03/30 07:52:44;;;;;;;1999.90;999.90;;;21.10;85.40;;;;;;5052041;28;20182;-53
2021/03/30 07:55:27;;;;;;;1999.90;999.90;;;21.20;84.50;;;;;;5052677;28;20337;-47
2021/03/30 07:58:12;;;;;;;1999.90;999.90;;;21.20;83.80;;;;;;5053084;28;20173;-44
2021/03/30 08:00:39;;;;;;;1999.90;999.90;;;21.60;83.00;;;;;;5052522;28;20185;-50
2021/03/30 08:03:17;;;;;;;1999.90;999.90;;;22.10;80.80;;;;;;5052651;28;20180;-48
2021/03/30 08:05:44;;;;;;;1999.90;999.90;;;22.90;77.40;;;;;;5051730;28;20244;-41
2021/03/30 08:08:22;;;;;;;1999.90;999.90;;;23.50;75.70;;;;;;5052377;28;20215;-53
2021/03/30 08:10:52;;;;;;;1999.90;999.90;;;23.80;72.10;;;;;;5049141;28;20223;-41
2021/03/30 08:13:22;;;;;;;1999.90;999.90;;;24.40;68.90;;;;;;5052094;28;20165;-40
2021/03/30 08:15:51;;;;;;;1999.90;999.90;;;24.40;68.50;;;;;;5052166;28;20177;-42
2021/03/30 08:18:20;;;;;;;1999.90;999.90;;;24.60;67.30;;;;;;5052453;28;20169;-40
2021/03/30 08:21:00;;;;;;;1999.90;999.90;;;24.60;66.50;;;;;;5052044;28;20173;-42
2021/03/30 08:23:29;;;;;;;1999.90;999.90;;;24.90;65.20;;;;;;5052919;28;20169;-43
2021/03/30 08:26:16;;;;;;;1999.90;999.90;;;24.80;65.40;;;;;;5051508;28;20572;-44
2021/03/30 08:28:49;;;;;;;1999.90;999.90;;;25.00;63.90;;;;;;5051120;28;20204;-44
2021/03/30 08:31:20;;;;;;;1999.90;999.90;;;25.40;62.70;;;;;;5052117;28;20643;-44
2021/03/30 08:33:51;;;;;;;1999.90;999.90;;;25.60;61.90;;;;;;5051784;28;20196;-45
2021/03/30 08:36:21;;;;;;;1999.90;999.90;;;25.70;60.80;;;;;;5050295;28;20216;-44
2021/03/30 08:38:50;;;;;;;1999.90;999.90;;;26.00;59.80;;;;;;5051532;28;20177;-42
2021/03/30 08:41:47;;;;;;;1999.90;999.90;;;26.00;59.60;;;;;;5049556;28;20620;-51
2021/03/30 08:44:21;;;;;;;1999.90;999.90;;;25.50;59.80;;;;;;5051784;28;20177;-53
2021/03/30 08:46:56;;;;;;;1999.90;999.90;;;25.50;60.00;;;;;;5051970;28;20578;-43
2021/03/30 08:49:37;;;;;;;1999.90;999.90;;;26.30;58.40;;;;;;5050883;28;20204;-52
2021/03/30 08:52:06;;;;;;;1999.90;999.90;;;26.80;57.30;;;;;;5052121;28;20188;-43
2021/03/30 08:54:51;;;;;;;1999.90;999.90;;;27.00;55.80;;;;;;5051693;28;20533;-43
2021/03/30 08:57:26;;;;;;;1999.90;999.90;;;27.40;54.80;;;;;;5051265;28;20169;-41
2021/03/30 08:59:53;;;;;;;1999.90;999.90;;;27.70;53.40;;;;;;5052271;28;20157;-40
2021/03/30 09:02:27;;;;;;;1999.90;999.90;;;27.30;54.90;;;;;;5051091;28;20215;-43
2021/03/30 09:04:55;;;;;;;1999.90;999.90;;;27.40;54.10;;;;;;5052050;28;20571;-50
2021/03/30 09:07:22;;;;;;;1999.90;999.90;;;27.10;54.10;;;;;;5051594;28;20181;-45
2021/03/30 09:09:50;;;;;;;1999.90;999.90;;;27.10;54.80;;;;;;5049830;28;20297;-47
2021/03/30 09:12:16;;;;;;;1999.90;999.90;;;27.20;54.10;;;;;;5051554;28;20165;-45
2021/03/30 09:14:44;;;;;;;1999.90;999.90;;;27.30;53.90;;;;;;5051676;28;20207;-46
2021/03/30 09:17:13;;;;;;;1999.90;999.90;;;27.20;53.30;;;;;;5050950;28;20173;-53
2021/03/30 09:19:43;;;;;;;1999.90;999.90;;;26.40;54.80;;;;;;5051863;28;20703;-46
2021/03/30 09:27:38;;;;;;;1999.90;999.90;;;27.40;53.10;;;;;;5051473;28;20165;-43
2021/03/30 09:30:08;;;;;;;1999.90;999.90;;;27.40;53.40;;;;;;5051007;28;20223;-48
2021/03/30 09:32:37;;;;;;;1999.90;999.90;;;27.80;52.30;;;;;;5051568;28;20460;-43
2021/03/30 09:35:18;;;;;;;1999.90;999.90;;;27.90;51.50;;;;;;5051313;28;20620;-43
2021/03/30 09:37:58;;;;;;;1999.90;999.90;;;28.10;51.30;;;;;;5049377;28;20173;-48
2021/03/30 09:40:29;;;;;;;1999.90;999.90;;;28.20;51.00;;;;;;5052852;28;20693;-47
2021/03/30 09:42:56;;;;;;;1999.90;999.90;;;27.90;50.60;;;;;;5055636;28;20237;-47
2021/03/30 09:45:33;;;;;;;1999.90;999.90;;;28.30;50.40;;;;;;5054569;28;20643;-42
2021/03/30 09:48:03;;;;;;;1999.90;999.90;;;28.60;49.50;;;;;;5055591;28;20242;-41
2021/03/30 09:50:30;;;;;;;1999.90;999.90;;;28.30;49.30;;;;;;5054890;28;20169;-55
2021/03/30 09:53:08;;;;;;;1999.90;999.90;;;28.20;50.20;;;;;;5054727;28;20204;-52
2021/03/30 09:55:37;;;;;;;1999.90;999.90;;;28.20;50.70;;;;;;5054784;28;20544;-44
2021/03/30 09:58:12;;;;;;;1999.90;999.90;;;28.30;48.90;;;;;;5054519;28;20183;-51
2021/03/30 10:00:43;;;;;;;1999.90;999.90;;;28.40;48.90;;;;;;5055237;28;20172;-49
2021/03/30 10:03:12;;;;;;;1999.90;999.90;;;27.80;49.70;;;;;;5055668;28;20177;-52
2021/03/30 10:05:41;;;;;;;1999.90;999.90;;;27.90;50.20;;;;;;5054045;28;20169;-52
2021/03/30 10:08:20;;;;;;;1999.90;999.90;;;27.90;49.80;;;;;;5055217;28;20201;-43
2021/03/30 10:10:49;;;;;;;1999.90;999.90;;;28.00;50.00;;;;;;5054745;28;20177;-54
2021/03/30 10:13:32;;;;;;;1999.90;999.90;;;27.90;49.70;;;;;;5054188;28;20170;-56
2021/03/30 10:16:01;;;;;;;1999.90;999.90;;;28.50;49.00;;;;;;5054567;28;20245;-49
2021/03/30 10:18:29;;;;;;;1999.90;999.90;;;28.80;48.70;;;;;;5054564;28;20177;-49
2021/03/30 10:21:00;;;;;;;1999.90;999.90;;;29.10;46.00;;;;;;5054662;28;20220;-49
2021/03/30 10:23:33;;;;;;;1999.90;999.90;;;29.00;45.80;;;;;;5054754;28;20215;-68
2021/03/30 10:26:17;;;;;;;1999.90;999.90;;;29.00;45.20;;;;;;5054036;28;20252;-54
2021/03/30 10:28:52;;;;;;;1999.90;999.90;;;29.20;44.40;;;;;;5054796;28;20201;-59
2021/03/30 10:31:44;;;;;;;1999.90;999.90;;;29.10;44.70;;;;;;5054856;28;20259;-47
2021/03/30 10:34:21;;;;;;;1999.90;999.90;;;28.80;45.90;;;;;;5053575;28;20181;-58
2021/03/30 10:36:53;;;;;;;1999.90;999.90;;;28.90;45.50;;;;;;5054459;28;20153;-54
2021/03/30 10:39:30;;;;;;;1999.90;999.90;;;28.90;45.80;;;;;;5052848;28;20697;-51
2021/03/30 10:42:05;;;;;;;1999.90;999.90;;;28.60;46.80;;;;;;5054005;28;20179;-56
2021/03/30 10:44:44;;;;;;;1999.90;999.90;;;28.60;46.20;;;;;;5054658;28;20176;-51
2021/03/30 10:47:22;;;;;;;1999.90;999.90;;;28.30;45.40;;;;;;5054328;28;20164;-56
2021/03/30 10:49:54;;;;;;;1999.90;999.90;;;28.30;46.50;;;;;;5054092;28;20197;-57
2021/03/30 10:52:24;;;;;;;1999.90;999.90;;;28.10;46.80;;;;;;5054451;28;20153;-55
2021/03/30 10:54:53;;;;;;;1999.90;999.90;;;28.00;46.80;;;;;;5053536;28;20200;-51
2021/03/30 10:57:22;;;;;;;1999.90;999.90;;;27.60;47.30;;;;;;5054088;28;20251;-65
2021/03/30 10:59:49;;;;;;;1999.90;999.90;;;28.10;47.40;;;;;;5054433;28;20173;-61
2021/03/30 11:02:18;;;;;;;1999.90;999.90;;;28.30;46.50;;;;;;5053555;28;20193;-55
2021/03/30 11:04:44;;;;;;;1999.90;999.90;;;28.60;46.30;;;;;;5053690;28;20559;-45
2021/03/30 11:07:11;;;;;;;1999.90;999.90;;;28.90;45.70;;;;;;5053954;28;20632;-47
2021/03/30 11:09:39;;;;;;;1999.90;999.90;;;28.90;45.20;;;;;;5053535;28;20287;-49
2021/03/30 11:12:06;;;;;;;1999.90;999.90;;;29.20;45.40;;;;;;5054365;28;20177;-49
2021/03/30 11:14:33;;;;;;;1999.90;999.90;;;29.20;44.90;;;;;;5053896;28;20701;-52
2021/03/30 11:17:00;;;;;;;1999.90;999.90;;;29.20;44.90;;;;;;5053254;28;20264;-42
2021/03/30 11:19:29;;;;;;;1999.90;999.90;;;28.70;45.80;;;;;;5053382;28;20173;-47
2021/03/30 11:21:56;;;;;;;1999.90;999.90;;;29.00;44.70;;;;;;5052872;28;20599;-44
2021/03/30 11:24:25;;;;;;;1999.90;999.90;;;29.20;44.40;;;;;;5053705;28;20177;-52
2021/03/30 11:26:54;;;;;;;1999.90;999.90;;;29.50;44.30;;;;;;5053909;28;20581;-48
2021/03/30 11:29:25;;;;;;;1999.90;999.90;;;29.60;43.80;;;;;;5052815;28;20240;-44
2021/03/30 11:34:47;;;;;;;1999.90;999.90;;;29.60;43.90;;;;;;5032466;28;20217;-46
2021/03/30 11:37:35;;;;;;;1999.90;999.90;;;29.30;43.00;;;;;;5052964;28;20569;-49
2021/03/30 11:40:02;;;;;;;1999.90;999.90;;;29.60;43.20;;;;;;5053121;28;20569;-57
2021/03/30 11:42:29;;;;;;;1999.90;999.90;;;30.00;42.20;;;;;;5053246;28;20692;-49
2021/03/30 11:44:56;;;;;;;1999.90;999.90;;;30.20;41.70;;;;;;5053258;28;20204;-52
2021/03/30 11:47:23;;;;;;;1999.90;999.90;;;29.60;41.30;;;;;;5053454;28;20655;-42
2021/03/30 11:49:49;;;;;;;1999.90;999.90;;;29.30;43.00;;;;;;5052936;28;20288;-47
2021/03/30 11:52:16;;;;;;;1999.90;999.90;;;29.50;41.60;;;;;;5052959;28;20165;-53
2021/03/30 11:54:44;;;;;;;1999.90;999.90;;;29.90;38.80;;;;;;5053211;28;20710;-51
2021/03/30 11:57:11;;;;;;;1999.90;999.90;;;30.20;37.60;;;;;;5052571;28;20181;-50
2021/03/30 11:59:38;;;;;;;1999.90;999.90;;;30.40;37.40;;;;;;5052170;28;20671;-44
2021/03/30 12:02:05;;;;;;;1999.90;999.90;;;30.50;37.00;;;;;;5053197;28;20215;-45
2021/03/30 12:04:32;;;;;;;1999.90;999.90;;;30.20;41.90;;;;;;5051574;28;20185;-65
2021/03/30 12:06:59;;;;;;;1999.90;999.90;;;29.70;43.20;;;;;;5052794;28;20495;-47
2021/03/30 12:09:26;;;;;;;1999.90;999.90;;;29.40;44.10;;;;;;5052864;28;20242;-41
2021/03/30 12:11:53;;;;;;;1999.90;999.90;;;29.10;44.30;;;;;;5052288;28;20169;-51
2021/03/30 12:14:19;;;;;;;1999.90;999.90;;;29.00;45.70;;;;;;5052480;28;20177;-47
2021/03/30 12:16:49;;;;;;;1999.90;999.90;;;28.90;45.50;;;;;;5052676;28;20624;-49
2021/03/30 12:19:17;;;;;;;1999.90;999.90;;;28.80;46.00;;;;;;5050618;28;20243;-50
2021/03/30 12:21:45;;;;;;;1999.90;999.90;;;28.90;45.40;;;;;;5052220;28;20168;-49
2021/03/30 12:24:12;;;;;;;1999.90;999.90;;;28.90;45.10;;;;;;5042054;28;20260;-44
2021/03/30 12:26:39;;;;;;;1999.90;999.90;;;29.00;43.90;;;;;;5051872;28;20173;-40
2021/03/30 12:29:06;;;;;;;1999.90;999.90;;;28.90;44.30;;;;;;5053188;28;20244;-44